Terminal Aerodrome Forecast
Issued by NWS Charleston, WV

Current Version | Previous Version | Graphics & Text | Print | Product List | Glossary On
Versions: 1 2 3 4 5 6 7 8 9 10 11 12 13 14 15 16 17 18 19 20 21 22 23 24
000
FTUS41 KRLX 211457 AAA
TAFCRW
TAF AMD
KCRW 211457Z 2115/2212 16005KT 4SM SHRA BKN020 OVC050
     FM211600 17007KT 3SM SHRA VCTS BKN015CB OVC050
     FM220000 16005KT 5SM -SHRA BKN015 OVC035
     FM220500 23004KT P6SM BKN020=

USA.gov is the U.S. government's official web portal to all federal, state and local government web resources and services.